sensor_id;sensor_type;location;lat;lon;timestamp;pressure;altitude;pressure_sealevel;temperature;humidity
40089;BME280;25793;55.706;13.186;2022-09-09T00:02:20;100363.53;;;15.27;73.23
40089;BME280;25793;55.706;13.186;2022-09-09T00:07:41;100353.63;;;15.30;73.71
40089;BME280;25793;55.706;13.186;2022-09-09T00:12:51;100345.34;;;15.35;74.19
40089;BME280;25793;55.706;13.186;2022-09-09T00:15:29;100350.94;;;15.42;74.11
40089;BME280;25793;55.706;13.186;2022-09-09T00:20:52;100347.63;;;15.40;74.13
40089;BME280;25793;55.706;13.186;2022-09-09T00:23:28;100350.44;;;15.48;74.42
40089;BME280;25793;55.706;13.186;2022-09-09T00:25:59;100348.06;;;15.45;74.56
40089;BME280;25793;55.706;13.186;2022-09-09T00:28:29;100351.75;;;15.42;74.59
40089;BME280;25793;55.706;13.186;2022-09-09T00:31:12;100342.19;;;15.31;75.17
40089;BME280;25793;55.706;13.186;2022-09-09T00:33:39;100347.28;;;15.33;75.22
40089;BME280;25793;55.706;13.186;2022-09-09T00:36:13;100342.22;;;15.20;75.51
40089;BME280;25793;55.706;13.186;2022-09-09T00:38:47;100330.50;;;15.14;75.72
40089;BME280;25793;55.706;13.186;2022-09-09T00:41:22;100345.34;;;15.14;75.50
40089;BME280;25793;55.706;13.186;2022-09-09T00:47:03;100338.34;;;15.14;74.56
40089;BME280;25793;55.706;13.186;2022-09-09T00:52:54;100321.63;;;15.05;75.02
40089;BME280;25793;55.706;13.186;2022-09-09T00:58:16;100318.81;;;15.18;75.29
40089;BME280;25793;55.706;13.186;2022-09-09T01:00:51;100320.31;;;15.21;75.23
40089;BME280;25793;55.706;13.186;2022-09-09T01:03:26;100315.28;;;15.29;75.18
40089;BME280;25793;55.706;13.186;2022-09-09T01:09:09;100309.03;;;15.20;74.83
40089;BME280;25793;55.706;13.186;2022-09-09T01:11:55;100309.78;;;15.11;75.30
40089;BME280;25793;55.706;13.186;2022-09-09T01:17:23;100308.19;;;15.20;75.68
40089;BME280;25793;55.706;13.186;2022-09-09T01:20:06;100316.03;;;15.20;75.09
40089;BME280;25793;55.706;13.186;2022-09-09T01:22:58;100324.53;;;15.12;75.18
40089;BME280;25793;55.706;13.186;2022-09-09T01:28:28;100313.88;;;15.04;75.87
40089;BME280;25793;55.706;13.186;2022-09-09T01:31:03;100318.75;;;15.09;76.09
40089;BME280;25793;55.706;13.186;2022-09-09T01:33:37;100316.69;;;15.12;76.05
40089;BME280;25793;55.706;13.186;2022-09-09T01:36:16;100312.16;;;15.14;75.68
40089;BME280;25793;55.706;13.186;2022-09-09T01:38:48;100313.81;;;15.15;75.40
40089;BME280;25793;55.706;13.186;2022-09-09T01:41:16;100313.81;;;15.15;75.48
40089;BME280;25793;55.706;13.186;2022-09-09T01:43:50;100310.94;;;14.97;75.41
40089;BME280;25793;55.706;13.186;2022-09-09T01:46:21;100302.38;;;14.95;75.92
40089;BME280;25793;55.706;13.186;2022-09-09T01:48:50;100301.91;;;14.90;76.09
40089;BME280;25793;55.706;13.186;2022-09-09T01:51:17;100300.97;;;14.91;76.14
40089;BME280;25793;55.706;13.186;2022-09-09T01:53:45;100294.91;;;14.90;76.43
40089;BME280;25793;55.706;13.186;2022-09-09T02:02:18;100294.50;;;14.74;76.62
40089;BME280;25793;55.706;13.186;2022-09-09T02:08:07;100294.25;;;14.66;76.18
40089;BME280;25793;55.706;13.186;2022-09-09T02:10:55;100282.03;;;14.66;76.16
40089;BME280;25793;55.706;13.186;2022-09-09T02:13:35;100277.50;;;14.68;76.27
40089;BME280;25793;55.706;13.186;2022-09-09T02:18:51;100282.13;;;14.76;76.01
40089;BME280;25793;55.706;13.186;2022-09-09T02:21:30;100285.22;;;14.70;76.21
40089;BME280;25793;55.706;13.186;2022-09-09T02:23:59;100290.09;;;14.74;76.39
40089;BME280;25793;55.706;13.186;2022-09-09T02:26:40;100287.22;;;14.78;76.50
40089;BME280;25793;55.706;13.186;2022-09-09T02:29:13;100288.31;;;14.75;76.30
40089;BME280;25793;55.706;13.186;2022-09-09T02:31:42;100287.59;;;14.73;76.53
40089;BME280;25793;55.706;13.186;2022-09-09T02:34:18;100283.06;;;14.75;76.27
40089;BME280;25793;55.706;13.186;2022-09-09T02:36:48;100273.69;;;14.72;76.63
40089;BME280;25793;55.706;13.186;2022-09-09T02:39:16;100270.94;;;14.74;76.78
40089;BME280;25793;55.706;13.186;2022-09-09T02:41:42;100270.47;;;14.69;76.67
40089;BME280;25793;55.706;13.186;2022-09-09T02:44:14;100282.81;;;14.78;76.34
40089;BME280;25793;55.706;13.186;2022-09-09T02:52:07;100273.00;;;14.92;76.25
40089;BME280;25793;55.706;13.186;2022-09-09T02:54:39;100273.00;;;14.92;75.84
40089;BME280;25793;55.706;13.186;2022-09-09T02:57:19;100264.31;;;14.91;76.18
40089;BME280;25793;55.706;13.186;2022-09-09T02:59:49;100261.94;;;14.88;76.60
40089;BME280;25793;55.706;13.186;2022-09-09T03:02:16;100268.09;;;14.98;76.29
40089;BME280;25793;55.706;13.186;2022-09-09T03:04:46;100261.28;;;14.96;75.93
40089;BME280;25793;55.706;13.186;2022-09-09T03:07:21;100264.06;;;14.94;76.02
40089;BME280;25793;55.706;13.186;2022-09-09T03:09:49;100262.16;;;14.96;75.83
40089;BME280;25793;55.706;13.186;2022-09-09T03:12:16;100268.66;;;15.02;76.38
40089;BME280;25793;55.706;13.186;2022-09-09T03:14:43;100262.19;;;15.06;75.64
40089;BME280;25793;55.706;13.186;2022-09-09T03:17:12;100269.28;;;15.15;75.53
40089;BME280;25793;55.706;13.186;2022-09-09T03:19:45;100264.06;;;15.15;75.32
40089;BME280;25793;55.706;13.186;2022-09-09T03:22:14;100269.03;;;15.18;75.15
40089;BME280;25793;55.706;13.186;2022-09-09T03:24:42;100268.06;;;15.19;74.93
40089;BME280;25793;55.706;13.186;2022-09-09T03:27:09;100260.59;;;15.15;75.11
40089;BME280;25793;55.706;13.186;2022-09-09T03:29:37;100263.50;;;15.12;75.52
40089;BME280;25793;55.706;13.186;2022-09-09T03:32:07;100257.03;;;14.95;75.85
40089;BME280;25793;55.706;13.186;2022-09-09T03:34:37;100266.28;;;14.99;75.95
40089;BME280;25793;55.706;13.186;2022-09-09T03:37:09;100262.69;;;15.00;75.88
40089;BME280;25793;55.706;13.186;2022-09-09T03:39:36;100268.91;;;14.99;76.09
40089;BME280;25793;55.706;13.186;2022-09-09T03:42:03;100269.75;;;14.99;75.90
40089;BME280;25793;55.706;13.186;2022-09-09T03:44:31;100262.44;;;15.03;76.21
40089;BME280;25793;55.706;13.186;2022-09-09T03:46:57;100260.53;;;15.05;76.37
40089;BME280;25793;55.706;13.186;2022-09-09T03:49:27;100267.78;;;15.13;76.08
40089;BME280;25793;55.706;13.186;2022-09-09T03:51:56;100261.53;;;15.14;75.70
40089;BME280;25793;55.706;13.186;2022-09-09T03:54:24;100271.75;;;15.17;75.65
40089;BME280;25793;55.706;13.186;2022-09-09T03:56:51;100266.41;;;15.18;75.67
40089;BME280;25793;55.706;13.186;2022-09-09T03:59:19;100250.25;;;15.13;75.75
40089;BME280;25793;55.706;13.186;2022-09-09T04:01:47;100255.28;;;15.05;76.54
40089;BME280;25793;55.706;13.186;2022-09-09T04:04:13;100255.28;;;15.05;76.59
40089;BME280;25793;55.706;13.186;2022-09-09T04:06:40;100258.00;;;14.94;77.52
40089;BME280;25793;55.706;13.186;2022-09-09T04:09:07;100259.53;;;14.96;77.62
40089;BME280;25793;55.706;13.186;2022-09-09T04:11:34;100251.91;;;14.93;77.94
40089;BME280;25793;55.706;13.186;2022-09-09T04:14:00;100257.03;;;14.95;78.05
40089;BME280;25793;55.706;13.186;2022-09-09T04:16:29;100260.63;;;14.94;77.99
40089;BME280;25793;55.706;13.186;2022-09-09T04:18:55;100257.88;;;14.95;78.39
40089;BME280;25793;55.706;13.186;2022-09-09T04:21:22;100257.03;;;14.95;78.47
40089;BME280;25793;55.706;13.186;2022-09-09T04:23:49;100258.56;;;14.97;78.18
40089;BME280;25793;55.706;13.186;2022-09-09T04:26:17;100266.69;;;14.94;78.56
40089;BME280;25793;55.706;13.186;2022-09-09T04:28:44;100255.75;;;14.89;78.60
40089;BME280;25793;55.706;13.186;2022-09-09T04:31:18;100264.31;;;14.91;78.70
40089;BME280;25793;55.706;13.186;2022-09-09T04:33:48;100262.84;;;14.98;78.42
40089;BME280;25793;55.706;13.186;2022-09-09T04:36:16;100270.94;;;14.95;78.42
40089;BME280;25793;55.706;13.186;2022-09-09T04:38:45;100278.00;;;14.95;78.58
40089;BME280;25793;55.706;13.186;2022-09-09T04:41:13;100271.78;;;14.96;78.51
40089;BME280;25793;55.706;13.186;2022-09-09T04:43:43;100272.09;;;15.02;78.63
40089;BME280;25793;55.706;13.186;2022-09-09T04:46:11;100273.88;;;15.02;78.62
40089;BME280;25793;55.706;13.186;2022-09-09T04:48:37;100281.22;;;15.08;78.36
40089;BME280;25793;55.706;13.186;2022-09-09T04:51:09;100282.31;;;15.05;78.36
40089;BME280;25793;55.706;13.186;2022-09-09T04:53:37;100275.69;;;15.01;78.52
40089;BME280;25793;55.706;13.186;2022-09-09T04:56:12;100284.19;;;14.94;79.19
40089;BME280;25793;55.706;13.186;2022-09-09T04:58:44;100281.94;;;14.89;79.18
40089;BME280;25793;55.706;13.186;2022-09-09T05:01:17;100286.53;;;14.97;79.47
40089;BME280;25793;55.706;13.186;2022-09-09T05:03:46;100289.13;;;14.97;79.29
40089;BME280;25793;55.706;13.186;2022-09-09T05:06:20;100289.44;;;14.94;79.65
40089;BME280;25793;55.706;13.186;2022-09-09T05:08:50;100286.41;;;14.98;79.59
40089;BME280;25793;55.706;13.186;2022-09-09T05:11:27;100296.25;;;15.06;79.35
40089;BME280;25793;55.706;13.186;2022-09-09T05:14:01;100302.31;;;15.07;79.51
40089;BME280;25793;55.706;13.186;2022-09-09T05:16:30;100288.00;;;15.11;79.34
40089;BME280;25793;55.706;13.186;2022-09-09T05:18:57;100300.28;;;15.10;79.42
40089;BME280;25793;55.706;13.186;2022-09-09T05:21:25;100298.75;;;15.08;79.43
40089;BME280;25793;55.706;13.186;2022-09-09T05:23:53;100299.56;;;15.08;79.58
40089;BME280;25793;55.706;13.186;2022-09-09T05:26:21;100294.47;;;15.07;79.42
40089;BME280;25793;55.706;13.186;2022-09-09T05:28:51;100292.81;;;15.05;79.83
40089;BME280;25793;55.706;13.186;2022-09-09T05:31:18;100308.97;;;15.11;79.42
40089;BME280;25793;55.706;13.186;2022-09-09T05:33:48;100299.88;;;15.15;79.62
40089;BME280;25793;55.706;13.186;2022-09-09T05:36:18;100308.31;;;15.18;79.41
40089;BME280;25793;55.706;13.186;2022-09-09T05:38:47;100309.84;;;15.21;79.63
40089;BME280;25793;55.706;13.186;2022-09-09T05:41:14;100305.06;;;15.26;79.10
40089;BME280;25793;55.706;13.186;2022-09-09T05:43:43;100309.13;;;15.19;79.25
40089;BME280;25793;55.706;13.186;2022-09-09T05:46:13;100311.75;;;15.19;78.86
40089;BME280;25793;55.706;13.186;2022-09-09T05:48:45;100310.03;;;15.08;79.37
40089;BME280;25793;55.706;13.186;2022-09-09T05:51:19;100313.38;;;15.10;79.32
40089;BME280;25793;55.706;13.186;2022-09-09T05:53:48;100313.38;;;15.10;79.40
40089;BME280;25793;55.706;13.186;2022-09-09T05:56:23;100318.59;;;15.10;79.46
40089;BME280;25793;55.706;13.186;2022-09-09T05:58:52;100320.97;;;15.13;79.06
40089;BME280;25793;55.706;13.186;2022-09-09T06:01:23;100321.53;;;15.17;78.35
40089;BME280;25793;55.706;13.186;2022-09-09T06:03:51;100323.09;;;15.19;78.46
40089;BME280;25793;55.706;13.186;2022-09-09T06:06:30;100324.16;;;15.17;78.55
40089;BME280;25793;55.706;13.186;2022-09-09T06:08:58;100321.16;;;15.22;78.70
40089;BME280;25793;55.706;13.186;2022-09-09T06:11:31;100329.72;;;15.24;78.88
40089;BME280;25793;55.706;13.186;2022-09-09T06:13:59;100325.19;;;15.26;78.83
40089;BME280;25793;55.706;13.186;2022-09-09T06:16:29;100323.19;;;15.18;79.19
40089;BME280;25793;55.706;13.186;2022-09-09T06:18:56;100330.78;;;15.21;79.66
40089;BME280;25793;55.706;13.186;2022-09-09T06:21:27;100336.44;;;15.38;79.27
40089;BME280;25793;55.706;13.186;2022-09-09T06:23:54;100345.00;;;15.40;79.01
40089;BME280;25793;55.706;13.186;2022-09-09T06:26:29;100343.06;;;15.42;79.22
40089;BME280;25793;55.706;13.186;2022-09-09T06:28:57;100346.44;;;15.54;79.11
40089;BME280;25793;55.706;13.186;2022-09-09T06:31:26;100345.59;;;15.53;78.89
40089;BME280;25793;55.706;13.186;2022-09-09T06:34:00;100346.41;;;15.44;79.29
40089;BME280;25793;55.706;13.186;2022-09-09T06:36:31;100355.81;;;15.56;79.59
40089;BME280;25793;55.706;13.186;2022-09-09T06:38:59;100348.03;;;15.66;79.38
40089;BME280;25793;55.706;13.186;2022-09-09T06:41:28;100346.69;;;15.72;79.15
40089;BME280;25793;55.706;13.186;2022-09-09T06:43:56;100348.44;;;15.71;79.41
40089;BME280;25793;55.706;13.186;2022-09-09T06:46:31;100354.13;;;15.76;79.09
40089;BME280;25793;55.706;13.186;2022-09-09T06:49:00;100348.06;;;15.76;79.04
40089;BME280;25793;55.706;13.186;2022-09-09T06:51:31;100351.41;;;15.78;78.97
40089;BME280;25793;55.706;13.186;2022-09-09T06:54:00;100358.16;;;15.80;79.15
40089;BME280;25793;55.706;13.186;2022-09-09T06:56:34;100356.25;;;15.83;78.94
40089;BME280;25793;55.706;13.186;2022-09-09T06:59:07;100356.63;;;15.78;79.23
40089;BME280;25793;55.706;13.186;2022-09-09T07:01:37;100360.28;;;15.87;79.03
40089;BME280;25793;55.706;13.186;2022-09-09T07:04:09;100356.84;;;15.86;78.98
40089;BME280;25793;55.706;13.186;2022-09-09T07:06:42;100368.38;;;15.84;79.05
40089;BME280;25793;55.706;13.186;2022-09-09T07:09:16;100367.63;;;15.93;79.04
40089;BME280;25793;55.706;13.186;2022-09-09T07:11:48;100371.00;;;16.05;78.59
40089;BME280;25793;55.706;13.186;2022-09-09T07:14:17;100366.19;;;16.10;78.46
40089;BME280;25793;55.706;13.186;2022-09-09T07:16:47;100366.47;;;16.17;78.10
40089;BME280;25793;55.706;13.186;2022-09-09T07:19:16;100366.22;;;16.20;77.95
40089;BME280;25793;55.706;13.186;2022-09-09T07:21:44;100371.88;;;16.15;78.12
40089;BME280;25793;55.706;13.186;2022-09-09T07:24:14;100370.19;;;16.14;78.28
40089;BME280;25793;55.706;13.186;2022-09-09T07:26:41;100376.94;;;16.07;78.47
40089;BME280;25793;55.706;13.186;2022-09-09T07:29:08;100383.41;;;16.03;78.82
40089;BME280;25793;55.706;13.186;2022-09-09T07:31:37;100386.03;;;16.03;79.05
40089;BME280;25793;55.706;13.186;2022-09-09T07:34:08;100383.28;;;16.04;79.32
40089;BME280;25793;55.706;13.186;2022-09-09T07:36:39;100386.22;;;16.11;79.29
40089;BME280;25793;55.706;13.186;2022-09-09T07:39:13;100386.88;;;16.03;79.39
40089;BME280;25793;55.706;13.186;2022-09-09T07:41:48;100390.56;;;16.01;79.69
40089;BME280;25793;55.706;13.186;2022-09-09T07:44:20;100393.09;;;16.02;79.73
40089;BME280;25793;55.706;13.186;2022-09-09T07:47:07;100391.72;;;16.08;79.89
40089;BME280;25793;55.706;13.186;2022-09-09T07:49:38;100400.84;;;16.14;79.77
40089;BME280;25793;55.706;13.186;2022-09-09T07:52:07;100394.88;;;16.12;79.65
40089;BME280;25793;55.706;13.186;2022-09-09T07:54:35;100404.44;;;16.13;80.27
40089;BME280;25793;55.706;13.186;2022-09-09T07:57:04;100406.78;;;16.16;79.81
40089;BME280;25793;55.706;13.186;2022-09-09T07:59:33;100401.69;;;16.14;80.39
40089;BME280;25793;55.706;13.186;2022-09-09T08:02:01;100410.25;;;16.16;80.20
40089;BME280;25793;55.706;13.186;2022-09-09T08:04:31;100412.88;;;16.16;80.33
40089;BME280;25793;55.706;13.186;2022-09-09T08:07:00;100409.66;;;16.13;80.45
40089;BME280;25793;55.706;13.186;2022-09-09T08:09:29;100415.88;;;16.12;80.42
40089;BME280;25793;55.706;13.186;2022-09-09T08:12:31;100418.38;;;16.13;80.97
40089;BME280;25793;55.706;13.186;2022-09-09T08:15:02;100422.00;;;16.22;80.86
40089;BME280;25793;55.706;13.186;2022-09-09T08:17:32;100417.03;;;16.29;80.69
40089;BME280;25793;55.706;13.186;2022-09-09T08:20:03;100414.84;;;16.34;80.46
40089;BME280;25793;55.706;13.186;2022-09-09T08:22:32;100421.25;;;16.41;80.15
40089;BME280;25793;55.706;13.186;2022-09-09T08:24:58;100419.84;;;16.47;80.11
40089;BME280;25793;55.706;13.186;2022-09-09T08:27:25;100410.81;;;16.71;79.77
40089;BME280;25793;55.706;13.186;2022-09-09T08:29:53;100426.84;;;16.87;79.42
40089;BME280;25793;55.706;13.186;2022-09-09T08:32:20;100418.44;;;16.93;78.92
40089;BME280;25793;55.706;13.186;2022-09-09T08:34:48;100424.56;;;17.04;78.71
40089;BME280;25793;55.706;13.186;2022-09-09T08:37:21;100420.41;;;17.11;78.27
40089;BME280;25793;55.706;13.186;2022-09-09T08:39:48;100421.38;;;17.20;77.74
40089;BME280;25793;55.706;13.186;2022-09-09T08:42:34;100418.47;;;17.33;77.51
40089;BME280;25793;55.706;13.186;2022-09-09T08:45:14;100423.69;;;17.42;77.04
40089;BME280;25793;55.706;13.186;2022-09-09T08:50:25;100431.72;;;17.51;76.54
40089;BME280;25793;55.706;13.186;2022-09-09T08:55:40;100439.59;;;17.61;76.58
40089;BME280;25793;55.706;13.186;2022-09-09T08:58:15;100446.34;;;17.73;76.35
40089;BME280;25793;55.706;13.186;2022-09-09T09:01:09;100437.91;;;17.79;76.07
40089;BME280;25793;55.706;13.186;2022-09-09T09:12:16;100449.09;;;17.91;76.10
40089;BME280;25793;55.706;13.186;2022-09-09T09:14:46;100454.84;;;18.14;75.82
40089;BME280;25793;55.706;13.186;2022-09-09T09:17:23;100450.34;;;18.35;75.61
40089;BME280;25793;55.706;13.186;2022-09-09T09:19:53;100449.81;;;18.59;74.67
40089;BME280;25793;55.706;13.186;2022-09-09T09:22:47;100457.75;;;18.77;74.20
40089;BME280;25793;55.706;13.186;2022-09-09T09:30:38;100459.66;;;19.21;70.44
40089;BME280;25793;55.706;13.186;2022-09-09T09:33:15;100458.97;;;19.37;70.38
40089;BME280;25793;55.706;13.186;2022-09-09T09:35:45;100459.75;;;19.29;70.59
40089;BME280;25793;55.706;13.186;2022-09-09T09:38:19;100458.78;;;19.30;70.10
40089;BME280;25793;55.706;13.186;2022-09-09T09:41:08;100469.81;;;19.34;70.64
40089;BME280;25793;55.706;13.186;2022-09-09T09:43:37;100467.88;;;19.36;70.17
40089;BME280;25793;55.706;13.186;2022-09-09T09:46:21;100472.84;;;19.21;70.35
40089;BME280;25793;55.706;13.186;2022-09-09T09:49:01;100470.75;;;19.25;70.30
40089;BME280;25793;55.706;13.186;2022-09-09T09:51:30;100476.53;;;19.28;70.31
40089;BME280;25793;55.706;13.186;2022-09-09T09:56:42;100481.59;;;19.21;70.67
40089;BME280;25793;55.706;13.186;2022-09-09T10:02:16;100481.97;;;19.27;70.68
40089;BME280;25793;55.706;13.186;2022-09-09T10:04:46;100481.13;;;19.26;70.84
40089;BME280;25793;55.706;13.186;2022-09-09T10:07:19;100482.56;;;19.39;70.97
40089;BME280;25793;55.706;13.186;2022-09-09T10:09:52;100486.78;;;19.49;70.17
40089;BME280;25793;55.706;13.186;2022-09-09T10:12:31;100490.59;;;19.55;69.72
40089;BME280;25793;55.706;13.186;2022-09-09T10:18:24;100484.75;;;19.25;69.47
40089;BME280;25793;55.706;13.186;2022-09-09T10:29:01;100488.22;;;19.62;66.58
40089;BME280;25793;55.706;13.186;2022-09-09T10:37:00;100488.22;;;19.88;65.35
40089;BME280;25793;55.706;13.186;2022-09-09T10:39:37;100492.03;;;20.12;64.85
40089;BME280;25793;55.706;13.186;2022-09-09T10:42:16;100491.53;;;20.17;64.17
40089;BME280;25793;55.706;13.186;2022-09-09T10:45:28;100498.41;;;20.36;64.02
40089;BME280;25793;55.706;13.186;2022-09-09T10:48:16;100501.41;;;20.41;63.57
40089;BME280;25793;55.706;13.186;2022-09-09T10:51:06;100510.25;;;20.32;63.43
40089;BME280;25793;55.706;13.186;2022-09-09T10:53:46;100507.50;;;20.07;62.11
40089;BME280;25793;55.706;13.186;2022-09-09T10:56:20;100512.94;;;20.05;62.52
40089;BME280;25793;55.706;13.186;2022-09-09T10:58:58;100517.69;;;20.02;61.45
40089;BME280;25793;55.706;13.186;2022-09-09T11:01:37;100521.50;;;19.81;62.17
40089;BME280;25793;55.706;13.186;2022-09-09T11:04:20;100517.00;;;20.26;61.92
40089;BME280;25793;55.706;13.186;2022-09-09T11:06:51;100529.72;;;19.60;61.97
40089;BME280;25793;55.706;13.186;2022-09-09T11:09:22;100524.91;;;18.91;63.71
40089;BME280;25793;55.706;13.186;2022-09-09T11:11:53;100534.78;;;19.35;63.67
40089;BME280;25793;55.706;13.186;2022-09-09T11:17:01;100538.44;;;19.78;62.97
40089;BME280;25793;55.706;13.186;2022-09-09T11:19:34;100530.38;;;19.80;63.61
40089;BME280;25793;55.706;13.186;2022-09-09T11:22:14;100543.13;;;19.66;63.62
40089;BME280;25793;55.706;13.186;2022-09-09T11:25:06;100547.66;;;19.38;64.75
40089;BME280;25793;55.706;13.186;2022-09-09T11:27:45;100542.00;;;19.69;64.31
40089;BME280;25793;55.706;13.186;2022-09-09T11:30:22;100539.97;;;19.63;64.04
40089;BME280;25793;55.706;13.186;2022-09-09T11:41:34;100556.84;;;19.34;66.54
40089;BME280;25793;55.706;13.186;2022-09-09T11:44:17;100559.63;;;19.87;64.55
40089;BME280;25793;55.706;13.186;2022-09-09T11:46:50;100556.50;;;20.09;63.53
40089;BME280;25793;55.706;13.186;2022-09-09T11:49:28;100562.94;;;19.16;64.99
40089;BME280;25793;55.706;13.186;2022-09-09T11:51:55;100568.59;;;19.21;65.90
40089;BME280;25793;55.706;13.186;2022-09-09T11:54:30;100563.19;;;19.59;65.74
40089;BME280;25793;55.706;13.186;2022-09-09T11:56:58;100564.00;;;19.78;65.25
40089;BME280;25793;55.706;13.186;2022-09-09T11:59:32;100565.44;;;19.54;66.54
40089;BME280;25793;55.706;13.186;2022-09-09T12:06:53;100575.66;;;18.93;70.01
40089;BME280;25793;55.706;13.186;2022-09-09T12:09:31;100572.63;;;18.60;71.16
40089;BME280;25793;55.706;13.186;2022-09-09T12:12:23;100568.63;;;19.12;69.92
40089;BME280;25793;55.706;13.186;2022-09-09T12:15:16;100575.72;;;19.11;69.79
40089;BME280;25793;55.706;13.186;2022-09-09T12:17:49;100574.25;;;19.27;68.83
40089;BME280;25793;55.706;13.186;2022-09-09T12:20:34;100575.56;;;19.13;69.29
40089;BME280;25793;55.706;13.186;2022-09-09T12:24:07;100579.16;;;19.40;68.19
40089;BME280;25793;55.706;13.186;2022-09-09T12:31:59;100582.69;;;20.03;65.86
40089;BME280;25793;55.706;13.186;2022-09-09T12:34:43;100573.59;;;19.97;64.97
40089;BME280;25793;55.706;13.186;2022-09-09T12:37:42;100571.34;;;19.66;66.19
40089;BME280;25793;55.706;13.186;2022-09-09T12:40:26;100570.56;;;19.74;65.79
40089;BME280;25793;55.706;13.186;2022-09-09T12:42:53;100579.50;;;20.17;64.42
40089;BME280;25793;55.706;13.186;2022-09-09T12:45:23;100577.56;;;20.28;63.63
40089;BME280;25793;55.706;13.186;2022-09-09T12:47:58;100580.91;;;19.85;64.22
40089;BME280;25793;55.706;13.186;2022-09-09T12:50:38;100583.75;;;20.10;63.76
40089;BME280;25793;55.706;13.186;2022-09-09T12:53:21;100585.03;;;20.59;62.79
40089;BME280;25793;55.706;13.186;2022-09-09T12:55:56;100585.25;;;21.00;61.63
40089;BME280;25793;55.706;13.186;2022-09-09T12:58:23;100587.06;;;20.99;61.30
40089;BME280;25793;55.706;13.186;2022-09-09T13:00:52;100586.34;;;20.89;61.24
40089;BME280;25793;55.706;13.186;2022-09-09T13:03:22;100586.47;;;21.31;60.47
40089;BME280;25793;55.706;13.186;2022-09-09T13:05:50;100579.41;;;21.56;60.08
40089;BME280;25793;55.706;13.186;2022-09-09T13:08:17;100585.06;;;21.78;59.83
40089;BME280;25793;55.706;13.186;2022-09-09T13:10:52;100581.91;;;21.66;59.27
40089;BME280;25793;55.706;13.186;2022-09-09T13:13:33;100581.72;;;21.51;59.66
40089;BME280;25793;55.706;13.186;2022-09-09T13:16:03;100584.53;;;21.57;59.67
40089;BME280;25793;55.706;13.186;2022-09-09T13:18:34;100577.09;;;21.61;58.66
40089;BME280;25793;55.706;13.186;2022-09-09T13:21:02;100570.16;;;22.10;57.66
40089;BME280;25793;55.706;13.186;2022-09-09T13:23:31;100579.25;;;22.24;56.55
40089;BME280;25793;55.706;13.186;2022-09-09T13:26:00;100582.19;;;22.37;56.21
40089;BME280;25793;55.706;13.186;2022-09-09T13:28:29;100571.13;;;22.25;54.97
40089;BME280;25793;55.706;13.186;2022-09-09T13:31:02;100575.28;;;22.28;55.45
40089;BME280;25793;55.706;13.186;2022-09-09T13:33:34;100569.25;;;22.42;55.30
40089;BME280;25793;55.706;13.186;2022-09-09T13:36:08;100572.06;;;22.57;54.58
40089;BME280;25793;55.706;13.186;2022-09-09T13:38:58;100574.53;;;22.67;54.30
40089;BME280;25793;55.706;13.186;2022-09-09T13:41:42;100569.03;;;22.69;53.07
40089;BME280;25793;55.706;13.186;2022-09-09T13:44:26;100561.41;;;22.74;53.12
40089;BME280;25793;55.706;13.186;2022-09-09T13:47:21;100562.59;;;23.03;52.87
40089;BME280;25793;55.706;13.186;2022-09-09T13:49:49;100573.47;;;23.16;51.76
40089;BME280;25793;55.706;13.186;2022-09-09T13:52:18;100567.56;;;22.98;52.91
40089;BME280;25793;55.706;13.186;2022-09-09T13:54:49;100573.53;;;22.68;53.30
40089;BME280;25793;55.706;13.186;2022-09-09T13:57:23;100573.44;;;22.45;53.72
40089;BME280;25793;55.706;13.186;2022-09-09T13:59:54;100570.78;;;22.37;54.34
40089;BME280;25793;55.706;13.186;2022-09-09T14:02:32;100574.91;;;22.39;53.38
40089;BME280;25793;55.706;13.186;2022-09-09T14:05:00;100572.63;;;22.20;54.02
40089;BME280;25793;55.706;13.186;2022-09-09T14:07:27;100576.28;;;22.18;53.89
40089;BME280;25793;55.706;13.186;2022-09-09T14:09:56;100578.09;;;22.18;53.22
40089;BME280;25793;55.706;13.186;2022-09-09T14:12:23;100584.69;;;22.39;54.33
40089;BME280;25793;55.706;13.186;2022-09-09T14:14:50;100574.28;;;22.21;54.64
40089;BME280;25793;55.706;13.186;2022-09-09T14:17:17;100579.59;;;21.96;55.69
40089;BME280;25793;55.706;13.186;2022-09-09T14:19:43;100582.38;;;22.27;55.28
40089;BME280;25793;55.706;13.186;2022-09-09T14:22:14;100586.53;;;22.22;55.20
40089;BME280;25793;55.706;13.186;2022-09-09T14:24:40;100573.09;;;22.31;55.45
40089;BME280;25793;55.706;13.186;2022-09-09T14:27:07;100580.59;;;22.11;55.40
40089;BME280;25793;55.706;13.186;2022-09-09T14:29:34;100575.66;;;21.92;55.96
40089;BME280;25793;55.706;13.186;2022-09-09T14:32:03;100584.06;;;21.87;56.25
40089;BME280;25793;55.706;13.186;2022-09-09T14:34:29;100570.53;;;21.73;56.40
40089;BME280;25793;55.706;13.186;2022-09-09T14:36:58;100569.66;;;21.98;56.21
40089;BME280;25793;55.706;13.186;2022-09-09T14:39:25;100565.34;;;22.05;55.67
40089;BME280;25793;55.706;13.186;2022-09-09T14:41:52;100568.19;;;22.03;55.39
40089;BME280;25793;55.706;13.186;2022-09-09T14:44:19;100571.69;;;21.79;55.78
40089;BME280;25793;55.706;13.186;2022-09-09T14:46:45;100570.78;;;21.29;56.40
40089;BME280;25793;55.706;13.186;2022-09-09T14:49:12;100576.31;;;21.01;58.10
40089;BME280;25793;55.706;13.186;2022-09-09T14:51:39;100563.44;;;20.98;58.79
40089;BME280;25793;55.706;13.186;2022-09-09T14:54:05;100565.41;;;20.96;59.53
40089;BME280;25793;55.706;13.186;2022-09-09T14:56:33;100576.78;;;20.96;59.50